If you wish to contribute or participate in the discussions about articles you are invited to join SKYbrary as a registered user

 Actions

Atqasuk Edward Burnell Sr Memorial Airport

From SKYbrary Wiki

PATQ
Airport
ICAO: PATQ – IATA: ATK
Summary
Name Atqasuk Edward Burnell Sr Memorial Airport
Region North America
Territory Alaska US.gif
Location Atqasuk, Alaska
Serving Atqasuk
Elevation 29.261 m
96 ft
96 ft29.261 m
Type medium airport
Coordinates 70° 28' 2.28" N, 157° 26' 9.60" W
Runways
Designator Length Width Surface ROPS
6/24 1332 m4,370.079 ft
27 m88.583 ft
GVL yes/yes


METAR
Observation PATQ 190256Z AUTO 17006KT 10SM CLR M21/M24 A2971 RMK AO2 SLP069 T12061239 53004 FZRANO TSNO
Station ATQASUK BURNELL
Date/Time 19 March 2019 02:56:00
Wind direction 170°
Wind speed 06 kts
Lowest cloud amount n/a
Temperature
Dew point
Humidity 74%
QNH hPa
Weather condition n/a

Maps

Terrain

Loading map...

Airport Layout

Loading map...


Accidents & Serious Incidents at or in vicinity of PATQ

None on SKYbrary